KBHM/BHM METAR and TAF weather

Enter ICAO airport designator
Station Type Date Time Source
KBHM METAR 2018/04/19 12:53 UTC NOAA

KBHM 191253Z 33013G19KT 10SM CLR 14/04 A3012 RMK AO2 SLP195 T01390044


Station Type Date Time Source
KBHM Decoded METAR 2018/04/19 12:53 UTC NOAA

BIRMINGHAM INT'L AIRPORT, AL, United States (KBHM) 33-34N 086-45W 197M
Apr 19, 2018 - 08:53 AM EDT / 2018.04.19 1253 UTC
Wind: from the NNW (330 degrees) at 15 MPH (13 KT) gusting to 22 MPH (19 KT):0
Visibility: 10 mile(s):0
Sky conditions: clear
Temperature: 57.0 F (13.9 C)
Dew Point: 39.9 F (4.4 C)
Relative Humidity: 52%
Pressure (altimeter): 30.12 in. Hg (1019 hPa)
ob: KBHM 191253Z 33013G19KT 10SM CLR 14/04 A3012 RMK AO2 SLP195 T01390044
cycle: 13

Station Type Date Time Source
KBHM TAF 2018/04/19 12:42 UTC NOAA

TAF KBHM 191140Z 1912/2012 33008KT P6SM SKC
FM191400 35010G20KT P6SM SKC
FM191800 34012G20KT P6SM SCT040
FM200300 01008KT P6SM SKC


Example: see airport list